Time;durP1;ratioP1;P1;durP2;ratioP2;P2;SDS_P1;SDS_P2;PMS_P1;PMS_P2;Temp;Humidity;BMP_temperature;BMP_pressure;BME280_temperature;BME280_humidity;BME280_pressure;Samples;Min_cycle;Max_cycle;Signal;HPM_P1;HPM_P2
2022/10/26 04:31:49;;;;;;;;;2.00;2.00;;;;;-147.14;100.00;58812.66;5305479;22;46531;-59
2022/10/26 04:34:14;;;;;;;;;2.00;2.00;;;;;-147.14;100.00;58812.66;4998355;28;45563;-62
2022/10/26 04:36:40;;;;;;;;;2.00;2.00;;;;;-147.14;100.00;58812.66;5000175;28;45412;-60
2022/10/26 04:39:05;;;;;;;;;2.67;2.67;;;;;-147.14;100.00;58812.66;4992136;28;70086;-62
2022/10/26 04:41:30;;;;;;;;;2.00;2.00;;;;;-147.14;100.00;58812.66;4992661;28;72057;-61
2022/10/26 04:43:56;;;;;;;;;4.00;2.50;;;;;-147.14;100.00;58812.66;4994345;28;61595;-61
2022/10/26 04:46:21;;;;;;;;;3.00;3.00;;;;;-147.14;100.00;58812.66;4993522;28;66467;-61
2022/10/26 04:48:47;;;;;;;;;2.00;2.00;;;;;-147.14;100.00;58812.66;4999476;28;75910;-61
2022/10/26 04:51:12;;;;;;;;;2.00;2.00;;;;;-147.14;100.00;58812.66;4994480;28;45489;-61
2022/10/26 04:53:38;;;;;;;;;2.00;2.00;;;;;-147.14;100.00;58812.66;4991935;28;67360;-61
2022/10/26 04:56:03;;;;;;;;;3.33;2.00;;;;;-147.14;100.00;58812.66;4997567;28;67531;-61
2022/10/26 04:58:28;;;;;;;;;3.00;3.00;;;;;-147.14;100.00;58812.66;4992554;28;46302;-61
2022/10/26 05:00:54;;;;;;;;;2.00;2.00;;;;;-147.14;100.00;58812.66;4987127;28;62647;-61
2022/10/26 05:03:19;;;;;;;;;4.00;3.33;;;;;-147.14;100.00;58812.66;4995071;28;64452;-61
2022/10/26 05:05:46;;;;;;;;;1.00;1.00;;;;;-147.14;100.00;58812.66;4997189;28;45600;-61
2022/10/26 05:08:12;;;;;;;;;4.33;2.67;;;;;-147.14;100.00;58812.66;4991074;28;46180;-61
2022/10/26 05:10:37;;;;;;;;;3.33;2.00;;;;;-147.14;100.00;58812.66;4992356;28;45506;-61
2022/10/26 05:13:03;;;;;;;;;3.00;2.33;;;;;-147.14;100.00;58812.66;4987167;28;45715;-61
2022/10/26 05:15:28;;;;;;;;;2.00;2.00;;;;;-147.14;100.00;58812.66;4992396;28;70207;-61
2022/10/26 05:17:58;;;;;;;;;2.00;2.00;;;;;-147.14;100.00;58812.66;4982422;28;45322;-61
2022/10/26 05:20:28;;;;;;;;;3.00;3.00;;;;;-147.14;100.00;58812.66;4982649;28;45326;-61
2022/10/26 05:22:55;;;;;;;;;2.00;2.00;;;;;-147.14;100.00;58812.66;4988123;28;45389;-61
2022/10/26 05:25:20;;;;;;;;;4.00;2.33;;;;;-147.14;100.00;58812.66;4986766;28;45691;-61
2022/10/26 05:27:46;;;;;;;;;4.33;2.33;;;;;-147.14;100.00;58812.66;4984091;28;59118;-61
2022/10/26 05:30:11;;;;;;;;;1.75;1.75;;;;;-147.14;100.00;58812.66;4993046;28;66274;-61
2022/10/26 05:32:37;;;;;;;;;2.00;2.00;;;;;-147.14;100.00;58812.66;4982761;28;45336;-61
2022/10/26 05:35:02;;;;;;;;;4.00;3.00;;;;;-147.14;100.00;58812.66;4993604;28;67133;-61
2022/10/26 05:37:28;;;;;;;;;3.33;3.33;;;;;-147.14;100.00;58812.66;4981330;28;46843;-61
2022/10/26 05:39:53;;;;;;;;;4.00;1.00;;;;;-147.14;100.00;58812.66;4981440;28;45815;-61
2022/10/26 05:42:19;;;;;;;;;1.00;1.00;;;;;-147.14;100.00;58812.66;4982049;28;45491;-61
2022/10/26 05:44:44;;;;;;;;;1.33;1.33;;;;;-147.14;100.00;58812.66;4990136;28;45460;-61
2022/10/26 05:47:10;;;;;;;;;2.00;2.00;;;;;-147.14;100.00;58812.66;4981670;28;45169;-61
2022/10/26 05:49:35;;;;;;;;;2.33;2.33;;;;;-147.14;100.00;58812.66;4986296;28;68647;-61
2022/10/26 05:52:00;;;;;;;;;6.00;3.00;;;;;-147.14;100.00;58812.66;4985405;28;59718;-59
2022/10/26 05:54:26;;;;;;;;;1.50;1.50;;;;;-147.14;100.00;58812.66;4981256;28;70912;-61
2022/10/26 05:56:51;;;;;;;;;3.75;3.25;;;;;-147.14;100.00;58812.66;4991228;28;45396;-61
2022/10/26 05:59:17;;;;;;;;;3.25;3.25;;;;;-147.14;100.00;58812.66;4996185;28;45372;-61
2022/10/26 06:01:48;;;;;;;;;5.00;2.00;;;;;-147.14;100.00;58812.66;4998917;28;45341;-61
2022/10/26 06:04:46;;;;;;;;;3.33;3.33;;;;;-147.14;100.00;58812.66;4999618;28;45524;-61
2022/10/26 06:07:14;;;;;;;;;3.00;2.67;;;;;-147.14;100.00;58812.66;4996806;28;46916;-61
2022/10/26 06:09:41;;;;;;;;;3.00;3.00;;;;;-147.14;100.00;58812.66;4993726;28;45479;-61
2022/10/26 06:12:07;;;;;;;;;4.00;2.00;;;;;-147.14;100.00;58812.66;4994166;28;45358;-61
2022/10/26 06:14:33;;;;;;;;;5.67;3.67;;;;;-147.14;100.00;58812.66;4994517;28;45457;-61
2022/10/26 06:17:14;;;;;;;;;1.33;1.33;;;;;-147.14;100.00;58812.66;4992556;28;46104;-61
2022/10/26 06:20:10;;;;;;;;;4.00;3.00;;;;;-147.14;100.00;58812.66;4987690;28;45415;-61
2022/10/26 06:22:42;;;;;;;;;2.50;2.50;;;;;-147.14;100.00;58812.66;4995946;28;45466;-61
2022/10/26 06:25:38;;;;;;;;;2.67;2.67;;;;;-147.14;100.00;58812.66;4994285;28;45341;-61
2022/10/26 06:28:25;;;;;;;;;3.67;3.00;;;;;-147.14;100.00;58812.66;4996318;28;45490;-61
2022/10/26 06:30:50;;;;;;;;;2.00;2.00;;;;;-147.14;100.00;58812.66;4984031;28;45483;-61
2022/10/26 06:33:16;;;;;;;;;2.00;0.75;;;;;-147.14;100.00;58812.66;4988419;28;45668;-60
2022/10/26 06:35:57;;;;;;;;;2.00;2.00;;;;;-147.14;100.00;58812.66;4982298;28;70398;-61
2022/10/26 06:38:26;;;;;;;;;4.00;3.00;;;;;-147.14;100.00;58812.66;4993321;28;46092;-61
2022/10/26 06:40:54;;;;;;;;;6.00;4.00;;;;;-147.14;100.00;58812.66;4989508;28;45528;-61
2022/10/26 06:43:24;;;;;;;;;4.00;3.00;;;;;-147.14;100.00;58812.66;4993617;28;45434;-61
2022/10/26 06:46:12;;;;;;;;;2.67;1.00;;;;;-147.14;100.00;58812.66;4982934;28;45736;-61
2022/10/26 06:48:53;;;;;;;;;3.33;3.33;;;;;-147.14;100.00;58812.66;4979518;28;48038;-61
2022/10/26 06:51:19;;;;;;;;;4.00;4.00;;;;;-147.14;100.00;58812.66;4988691;28;45366;-61
2022/10/26 06:54:04;;;;;;;;;3.67;3.67;;;;;-147.14;100.00;58812.66;4988651;28;45421;-75
2022/10/26 06:56:30;;;;;;;;;5.33;5.00;;;;;-147.14;100.00;58812.66;4984864;28;45489;-73
2022/10/26 06:59:03;;;;;;;;;5.00;4.00;;;;;-147.14;100.00;58812.66;4987968;28;47202;-74
2022/10/26 07:01:28;;;;;;;;;3.33;3.33;;;;;-147.14;100.00;58812.66;4999195;28;45417;-74
2022/10/26 07:03:53;;;;;;;;;7.00;4.00;;;;;-147.14;100.00;58812.66;4997318;28;62865;-74
2022/10/26 07:06:19;;;;;;;;;4.67;3.33;;;;;-147.14;100.00;58812.66;4986614;28;69306;-73
2022/10/26 07:08:44;;;;;;;;;3.00;3.00;;;;;-147.14;100.00;58812.66;4987516;28;58552;-74
2022/10/26 07:11:09;;;;;;;;;3.33;3.33;;;;;-147.14;100.00;58812.66;4990682;28;45622;-74
2022/10/26 07:13:35;;;;;;;;;5.33;4.00;;;;;-147.14;100.00;58812.66;4982886;28;45424;-73
2022/10/26 07:16:00;;;;;;;;;3.00;3.00;;;;;-147.14;100.00;58812.66;4993537;28;45412;-74
2022/10/26 07:18:25;;;;;;;;;3.33;3.00;;;;;-147.14;100.00;58812.66;4988704;28;70250;-73
2022/10/26 07:20:51;;;;;;;;;4.33;3.33;;;;;-147.14;100.00;58812.66;4986497;28;58301;-74
2022/10/26 07:23:16;;;;;;;;;4.00;4.00;;;;;-147.14;100.00;58812.66;4989465;28;63299;-74
2022/10/26 07:25:41;;;;;;;;;7.00;4.00;;;;;-147.14;100.00;58812.66;4986249;28;45538;-74
2022/10/26 07:28:11;;;;;;;;;7.00;5.00;;;;;-147.14;100.00;58812.66;4984346;28;45543;-73
2022/10/26 07:30:38;;;;;;;;;2.00;2.00;;;;;-147.14;100.00;58812.66;4997289;28;45491;-74
2022/10/26 07:33:09;;;;;;;;;4.00;3.00;;;;;-147.14;100.00;58812.66;4987225;28;45373;-74
2022/10/26 07:35:35;;;;;;;;;3.00;3.00;;;;;-147.14;100.00;58812.66;4993316;28;45405;-76
2022/10/26 07:38:01;;;;;;;;;3.00;2.67;;;;;-147.14;100.00;58812.66;4995472;28;45490;-72
2022/10/26 07:40:27;;;;;;;;;4.00;2.33;;;;;-147.14;100.00;58812.66;4986413;28;45511;-72
2022/10/26 07:42:55;;;;;;;;;2.00;2.00;;;;;-147.14;100.00;58812.66;4987507;28;45374;-72
2022/10/26 07:45:20;;;;;;;;;3.75;2.00;;;;;-147.14;100.00;58812.66;4991824;28;45448;-73
2022/10/26 07:47:46;;;;;;;;;3.67;3.33;;;;;-147.14;100.00;58812.66;4992124;28;73910;-73
2022/10/26 07:50:12;;;;;;;;;3.33;3.00;;;;;-147.14;100.00;58812.66;4994544;28;45467;-73
2022/10/26 07:52:40;;;;;;;;;3.00;3.00;;;;;-147.14;100.00;58812.66;4997384;28;45454;-72
2022/10/26 07:55:06;;;;;;;;;3.67;2.00;;;;;-147.14;100.00;58812.66;4985842;28;45730;-73
2022/10/26 07:57:32;;;;;;;;;3.33;3.33;;;;;-147.14;100.00;58812.66;4994051;28;46216;-73
2022/10/26 07:59:58;;;;;;;;;2.00;2.00;;;;;-147.14;100.00;58812.66;4992118;28;45505;-73
2022/10/26 08:02:23;;;;;;;;;3.75;2.75;;;;;-147.14;100.00;58812.66;4996762;28;45498;-74
2022/10/26 08:04:49;;;;;;;;;4.00;3.25;;;;;-147.14;100.00;58812.66;4992536;28;45687;-73
2022/10/26 08:07:14;;;;;;;;;1.75;1.75;;;;;-147.14;100.00;58812.66;4996436;28;69401;-73
2022/10/26 08:09:39;;;;;;;;;3.00;3.00;;;;;-147.14;100.00;58812.66;4993952;28;70846;-73
2022/10/26 08:12:04;;;;;;;;;2.00;2.00;;;;;-147.14;100.00;58812.66;4993629;28;59358;-73
2022/10/26 08:14:30;;;;;;;;;5.00;1.00;;;;;-147.14;100.00;58812.66;4996673;28;69946;-73
2022/10/26 08:16:56;;;;;;;;;2.33;2.00;;;;;-147.14;100.00;58812.66;4992620;28;60294;-73
2022/10/26 08:19:21;;;;;;;;;2.33;2.33;;;;;-147.14;100.00;58812.66;4995647;28;58712;-72
2022/10/26 08:21:46;;;;;;;;;2.25;2.00;;;;;-147.14;100.00;58812.66;4996453;28;45650;-73
2022/10/26 08:24:12;;;;;;;;;3.00;3.00;;;;;-147.14;100.00;58812.66;4991340;28;45543;-73
2022/10/26 08:26:37;;;;;;;;;3.67;2.00;;;;;-147.14;100.00;58812.66;4993925;28;45785;-73
2022/10/26 08:29:02;;;;;;;;;4.25;1.50;;;;;-147.14;100.00;58812.66;4988542;28;45416;-72
2022/10/26 08:31:28;;;;;;;;;4.00;4.00;;;;;-147.14;100.00;58812.66;4998164;28;68340;-73
2022/10/26 08:33:53;;;;;;;;;4.50;4.50;;;;;-147.14;100.00;58812.66;4995012;28;45357;-71
2022/10/26 08:36:22;;;;;;;;;4.00;2.75;;;;;-147.14;100.00;58812.66;4996912;28;69338;-71
2022/10/26 08:38:47;;;;;;;;;2.67;2.67;;;;;-147.14;100.00;58812.66;4998136;28;45399;-72
2022/10/26 08:41:13;;;;;;;;;3.25;3.25;;;;;-147.14;100.00;58812.66;4997317;28;53090;-72
2022/10/26 08:43:40;;;;;;;;;3.67;3.67;;;;;-147.14;100.00;58812.66;4987760;28;45366;-71
2022/10/26 08:46:26;;;;;;;;;4.00;3.00;;;;;-147.14;100.00;58812.66;4998071;28;45537;-71
2022/10/26 08:48:59;;;;;;;;;5.00;2.50;;;;;-147.14;100.00;58812.66;4986018;28;45534;-71
2022/10/26 08:51:29;;;;;;;;;4.25;3.00;;;;;-147.14;100.00;58812.66;5011606;28;45348;-71
2022/10/26 08:53:58;;;;;;;;;5.00;2.00;;;;;-147.14;100.00;58812.66;4996533;28;45817;-71
2022/10/26 08:56:26;;;;;;;;;3.00;2.00;;;;;-147.14;100.00;58812.66;4987472;28;45760;-71
2022/10/26 08:59:06;;;;;;;;;2.75;1.00;;;;;-147.14;100.00;58812.66;4998205;28;45464;-71
2022/10/26 09:01:32;;;;;;;;;2.00;2.00;;;;;-147.14;100.00;58812.66;4986063;28;45572;-72
2022/10/26 09:04:00;;;;;;;;;5.25;2.50;;;;;-147.14;100.00;58812.66;4992216;28;45446;-69
2022/10/26 09:06:39;;;;;;;;;3.50;2.00;;;;;-147.14;100.00;58812.66;4991230;28;46215;-68
2022/10/26 09:09:13;;;;;;;;;5.00;3.00;;;;;-147.14;100.00;58812.66;4984510;28;45302;-69
2022/10/26 09:11:57;;;;;;;;;2.00;2.00;;;;;-147.14;100.00;58812.66;4990094;28;45551;-69
2022/10/26 09:14:42;;;;;;;;;2.75;2.75;;;;;-147.14;100.00;58812.66;4993070;28;45444;-69
2022/10/26 09:17:25;;;;;;;;;2.25;2.25;;;;;-147.14;100.00;58812.66;4987971;28;45519;-68
2022/10/26 09:20:03;;;;;;;;;2.00;2.00;;;;;-147.14;100.00;58812.66;4993183;28;45977;-69
2022/10/26 09:23:04;;;;;;;;;5.00;1.75;;;;;-147.14;100.00;58812.66;4991642;28;45262;-68
2022/10/26 09:25:37;;;;;;;;;3.50;1.00;;;;;-147.14;100.00;58812.66;4985515;28;46101;-67
2022/10/26 09:28:03;;;;;;;;;2.75;1.00;;;;;-147.14;100.00;58812.66;5003663;28;46547;-67
2022/10/26 09:30:29;;;;;;;;;5.00;2.00;;;;;-147.14;100.00;58812.66;4991896;28;45756;-69
2022/10/26 09:32:59;;;;;;;;;3.50;3.00;;;;;-147.14;100.00;58812.66;4993198;28;44889;-68
2022/10/26 09:35:38;;;;;;;;;1.00;1.00;;;;;-147.14;100.00;58812.66;4992196;28;45332;-69
2022/10/26 09:38:18;;;;;;;;;6.25;2.50;;;;;-147.14;100.00;58812.66;5001930;28;46784;-69
2022/10/26 09:40:57;;;;;;;;;5.25;1.00;;;;;-147.14;100.00;58812.66;4990261;28;45446;-69
2022/10/26 09:43:45;;;;;;;;;1.00;1.00;;;;;-147.14;100.00;58812.66;5001488;28;45462;-69
2022/10/26 09:46:17;;;;;;;;;0.00;0.00;;;;;-147.14;100.00;58812.66;4994435;28;45521;-71
2022/10/26 09:48:47;;;;;;;;;1.25;0.00;;;;;-147.14;100.00;58812.66;4993865;28;46313;-71
2022/10/26 09:51:15;;;;;;;;;2.60;1.00;;;;;-147.14;100.00;58812.66;4992292;28;45482;-71
2022/10/26 09:53:41;;;;;;;;;1.80;0.20;;;;;-147.14;100.00;58812.66;4997327;28;45418;-71
2022/10/26 09:56:10;;;;;;;;;0.50;0.50;;;;;-147.14;100.00;58812.66;4994907;28;45498;-70
2022/10/26 09:58:45;;;;;;;;;1.00;0.00;;;;;-147.14;100.00;58812.66;4995916;28;46258;-70
2022/10/26 10:01:31;;;;;;;;;3.20;0.00;;;;;-147.14;100.00;58812.66;4996758;28;45599;-71
2022/10/26 10:04:12;;;;;;;;;0.75;0.25;;;;;-147.14;100.00;58812.66;4995787;28;45433;-70
2022/10/26 10:06:42;;;;;;;;;20.75;16.25;;;;;-147.14;100.00;58812.66;4993269;28;45482;-71
2022/10/26 10:09:18;;;;;;;;;2.50;2.25;;;;;-147.14;100.00;58812.66;4993365;28;46327;-71
2022/10/26 10:11:53;;;;;;;;;0.00;0.00;;;;;-147.14;100.00;58812.66;4989069;28;45459;-70
2022/10/26 10:14:23;;;;;;;;;0.00;0.00;;;;;-147.14;100.00;58812.66;4996930;28;45385;-70
2022/10/26 10:16:57;;;;;;;;;0.00;0.00;;;;;-147.14;100.00;58812.66;4995172;28;45413;-70
2022/10/26 10:19:27;;;;;;;;;2.00;0.00;;;;;-147.14;100.00;58812.66;4994176;28;47263;-70
2022/10/26 10:21:56;;;;;;;;;1.00;0.20;;;;;-147.14;100.00;58812.66;4971602;28;45447;-70
2022/10/26 10:24:22;;;;;;;;;0.00;0.00;;;;;-147.14;100.00;58812.66;4984143;28;45613;-68
2022/10/26 10:27:01;;;;;;;;;0.00;0.00;;;;;-147.14;100.00;58812.66;4995479;28;45270;-68
2022/10/26 10:29:32;;;;;;;;;1.80;1.20;;;;;-147.14;100.00;58812.66;4989797;28;46399;-68
2022/10/26 10:31:59;;;;;;;;;1.80;0.40;;;;;-147.14;100.00;58812.66;4995502;28;45497;-69
2022/10/26 10:34:25;;;;;;;;;0.40;0.40;;;;;-147.14;100.00;58812.66;4992180;28;45429;-69
2022/10/26 10:36:51;;;;;;;;;0.00;0.00;;;;;-147.14;100.00;58812.66;4992117;28;45746;-69
2022/10/26 10:39:38;;;;;;;;;0.00;0.00;;;;;-147.14;100.00;58812.66;4996415;28;46162;-69
2022/10/26 10:42:19;;;;;;;;;1.00;1.00;;;;;-147.14;100.00;58812.66;4984669;28;45528;-69
2022/10/26 10:44:45;;;;;;;;;1.40;0.20;;;;;-147.14;100.00;58812.66;4990239;28;45569;-69
2022/10/26 10:47:21;;;;;;;;;2.25;1.00;;;;;-147.14;100.00;58812.66;4991387;28;45756;-69
2022/10/26 10:49:58;;;;;;;;;1.00;1.00;;;;;-147.14;100.00;58812.66;4993864;28;46507;-68
2022/10/26 10:52:25;;;;;;;;;0.20;0.20;;;;;-147.14;100.00;58812.66;4992197;28;45449;-69
2022/10/26 10:55:19;;;;;;;;;1.20;0.20;;;;;-147.14;100.00;58812.66;4992629;28;45444;-68
2022/10/26 10:58:07;;;;;;;;;1.00;0.50;;;;;-147.14;100.00;58812.66;4987260;28;46698;-68
2022/10/26 11:00:36;;;;;;;;;2.25;1.00;;;;;-147.14;100.00;58812.66;5000619;28;48609;-68
2022/10/26 11:03:32;;;;;;;;;1.00;1.00;;;;;-147.14;100.00;58812.66;4985874;28;46618;-68
2022/10/26 11:06:09;;;;;;;;;2.00;1.00;;;;;-147.14;100.00;58812.66;5004563;28;46161;-68
2022/10/26 11:08:44;;;;;;;;;0.00;0.00;;;;;-147.14;100.00;58812.66;4990038;28;45586;-68
2022/10/26 11:11:18;;;;;;;;;1.50;0.00;;;;;-147.14;100.00;58812.66;4986467;28;46344;-68
2022/10/26 11:14:21;;;;;;;;;0.60;0.00;;;;;-147.14;100.00;58812.66;5000717;28;45799;-69
2022/10/26 11:16:51;;;;;;;;;5.20;0.00;;;;;-147.14;100.00;58812.66;4986121;28;46484;-69
2022/10/26 11:19:31;;;;;;;;;0.00;0.00;;;;;-147.14;100.00;58812.66;4987897;28;46830;-69
2022/10/26 11:21:56;;;;;;;;;0.75;0.75;;;;;-147.14;100.00;58812.66;5006233;28;45479;-69
2022/10/26 11:24:37;;;;;;;;;0.00;0.00;;;;;-147.14;100.00;58812.66;4984745;28;45338;-69
2022/10/26 11:27:14;;;;;;;;;0.60;0.60;;;;;-147.14;100.00;58812.66;4987945;28;45790;-69
2022/10/26 11:30:19;;;;;;;;;0.00;0.00;;;;;-147.14;100.00;58812.66;4986092;28;45762;-68
2022/10/26 11:32:49;;;;;;;;;1.00;1.00;;;;;-147.14;100.00;58812.66;4928663;28;45481;-69
2022/10/26 11:35:17;;;;;;;;;0.00;0.00;;;;;-147.14;100.00;58812.66;4980028;28;46487;-69
2022/10/26 11:37:55;;;;;;;;;0.00;0.00;;;;;-147.14;100.00;58812.66;4994901;28;45639;-69
2022/10/26 11:40:35;;;;;;;;;1.00;0.00;;;;;-147.14;100.00;58812.66;4991607;28;45851;-69
2022/10/26 11:43:21;;;;;;;;;0.00;0.00;;;;;-147.14;100.00;58812.66;4997828;28;46408;-69
2022/10/26 11:46:03;;;;;;;;;0.00;0.00;;;;;-147.14;100.00;58812.66;4990802;28;46066;-68
2022/10/26 11:48:37;;;;;;;;;0.00;0.00;;;;;-147.14;100.00;58812.66;4991917;28;45584;-68
2022/10/26 11:51:03;;;;;;;;;1.50;0.75;;;;;-147.14;100.00;58812.66;5000983;28;46334;-69
2022/10/26 11:53:40;;;;;;;;;0.00;0.00;;;;;-147.14;100.00;58812.66;4985530;28;72386;-68
2022/10/26 11:56:12;;;;;;;;;0.00;0.00;;;;;-147.14;100.00;58812.66;5002126;28;45676;-68
2022/10/26 11:58:38;;;;;;;;;5.75;2.25;;;;;-147.14;100.00;58812.66;5006662;28;46164;-68
2022/10/26 12:01:08;;;;;;;;;3.25;1.00;;;;;-147.14;100.00;58812.66;4992409;28;45528;-68
2022/10/26 12:03:39;;;;;;;;;2.00;0.00;;;;;-147.14;100.00;58812.66;4988168;28;45548;-69
2022/10/26 12:06:04;;;;;;;;;0.00;0.00;;;;;-147.14;100.00;58812.66;4994749;28;45619;-69
2022/10/26 12:08:35;;;;;;;;;1.25;0.00;;;;;-147.14;100.00;58812.66;4992253;28;45425;-68
2022/10/26 12:11:19;;;;;;;;;0.00;0.00;;;;;-147.14;100.00;58812.66;4996440;28;45417;-63
2022/10/26 12:13:49;;;;;;;;;0.50;0.25;;;;;-147.14;100.00;58812.66;4994275;28;45622;-63
2022/10/26 12:16:43;;;;;;;;;0.40;0.40;;;;;-147.14;100.00;58812.66;4996461;28;45567;-63
2022/10/26 12:19:17;;;;;;;;;0.80;0.00;;;;;-147.14;100.00;58812.66;4989276;28;45645;-63
2022/10/26 12:21:43;;;;;;;;;0.25;0.25;;;;;-147.14;100.00;58812.66;4994964;28;45420;-63
2022/10/26 12:24:25;;;;;;;;;1.50;0.00;;;;;-147.14;100.00;58812.66;4998402;28;46153;-65
2022/10/26 12:26:57;;;;;;;;;0.20;0.00;;;;;-147.14;100.00;58812.66;4999830;28;45523;-65
2022/10/26 12:29:30;;;;;;;;;0.00;0.00;;;;;-147.14;100.00;58812.66;4995568;28;45655;-66
2022/10/26 12:31:55;;;;;;;;;1.25;0.00;;;;;-147.14;100.00;58812.66;4994581;28;45431;-63
2022/10/26 12:34:22;;;;;;;;;0.25;0.25;;;;;-147.14;100.00;58812.66;4996150;28;45448;-63
2022/10/26 12:36:47;;;;;;;;;1.40;0.00;;;;;-147.14;100.00;58812.66;4995654;28;45988;-63
2022/10/26 12:39:35;;;;;;;;;1.75;0.25;;;;;-147.14;100.00;58812.66;4997293;28;45637;-63
2022/10/26 12:42:03;;;;;;;;;1.50;0.25;;;;;-147.14;100.00;58812.66;4991286;28;45547;-63
2022/10/26 12:44:36;;;;;;;;;0.00;0.00;;;;;-147.14;100.00;58812.66;4993879;28;45917;-63
2022/10/26 12:47:03;;;;;;;;;1.00;0.00;;;;;-147.14;100.00;58812.66;4993913;28;45488;-63
2022/10/26 12:50:00;;;;;;;;;0.00;0.00;;;;;-147.14;100.00;58812.66;4993531;28;46584;-63
2022/10/26 12:52:39;;;;;;;;;1.00;1.00;;;;;-147.14;100.00;58812.66;4995663;28;45679;-63
2022/10/26 12:55:10;;;;;;;;;1.00;0.00;;;;;-147.14;100.00;58812.66;4994879;28;46314;-64
2022/10/26 12:57:52;;;;;;;;;2.20;0.20;;;;;-147.14;100.00;58812.66;4993176;28;45280;-63
2022/10/26 13:00:22;;;;;;;;;0.25;0.25;;;;;-147.14;100.00;58812.66;4991889;28;45726;-63
2022/10/26 13:03:09;;;;;;;;;0.25;0.00;;;;;-147.14;100.00;58812.66;4994024;28;45597;-63
2022/10/26 13:05:53;;;;;;;;;0.80;0.80;;;;;-147.14;100.00;58812.66;4998405;28;45522;-64
2022/10/26 13:08:19;;;;;;;;;1.60;0.20;;;;;-147.14;100.00;58812.66;4987983;28;45531;-62
2022/10/26 13:11:19;;;;;;;;;2.00;0.00;;;;;-147.14;100.00;58812.66;4989431;28;45399;-62
2022/10/26 13:13:52;;;;;;;;;1.25;0.00;;;;;-147.14;100.00;58812.66;4985951;28;46639;-62
2022/10/26 13:16:18;;;;;;;;;0.25;0.25;;;;;-147.14;100.00;58812.66;4992306;28;45980;-62
2022/10/26 13:18:46;;;;;;;;;0.25;0.25;;;;;-147.14;100.00;58812.66;4986869;28;46126;-62
2022/10/26 13:21:17;;;;;;;;;1.60;1.60;;;;;-147.14;100.00;58812.66;4998155;28;45535;-62
2022/10/26 13:23:45;;;;;;;;;5.25;0.50;;;;;-147.14;100.00;58812.66;4992828;28;45273;-62
2022/10/26 13:26:13;;;;;;;;;4.50;0.25;;;;;-147.14;100.00;58812.66;4994491;28;45461;-62
2022/10/26 13:28:38;;;;;;;;;0.40;0.20;;;;;-147.14;100.00;58812.66;4992944;28;45372;-62
2022/10/26 13:31:27;;;;;;;;;1.25;0.00;;;;;-147.14;100.00;58812.66;4982998;28;45547;-62
2022/10/26 13:33:57;;;;;;;;;0.25;0.25;;;;;-147.14;100.00;58812.66;5006281;28;45493;-62
2022/10/26 13:36:35;;;;;;;;;0.75;0.50;;;;;-147.14;100.00;58812.66;4991642;28;45575;-62
2022/10/26 13:39:05;;;;;;;;;2.00;0.20;;;;;-147.14;100.00;58812.66;4988571;28;45610;-62
2022/10/26 13:41:39;;;;;;;;;2.25;1.25;;;;;-147.14;100.00;58812.66;4994765;28;45476;-62
2022/10/26 13:44:06;;;;;;;;;1.25;1.25;;;;;-147.14;100.00;58812.66;4996143;28;45588;-62
2022/10/26 13:46:35;;;;;;;;;2.00;0.75;;;;;-147.14;100.00;58812.66;4989771;28;45929;-62
2022/10/26 13:49:07;;;;;;;;;0.00;0.00;;;;;-147.14;100.00;58812.66;4997884;28;45490;-62
2022/10/26 13:51:42;;;;;;;;;0.00;0.00;;;;;-147.14;100.00;58812.66;5005024;28;45534;-62
2022/10/26 13:54:20;;;;;;;;;1.25;1.25;;;;;-147.14;100.00;58812.66;4992313;28;45868;-62
2022/10/26 13:56:58;;;;;;;;;1.00;1.00;;;;;-147.14;100.00;58812.66;4993063;28;46611;-62
2022/10/26 13:59:25;;;;;;;;;0.00;0.00;;;;;-147.14;100.00;58812.66;4998411;28;45349;-62
2022/10/26 14:02:14;;;;;;;;;2.00;0.25;;;;;-147.14;100.00;58812.66;4986146;28;45689;-62
2022/10/26 14:04:40;;;;;;;;;1.00;1.00;;;;;-147.14;100.00;58812.66;4986788;28;45397;-62
2022/10/26 14:07:05;;;;;;;;;0.00;0.00;;;;;-147.14;100.00;58812.66;4991727;28;67777;-62
2022/10/26 14:09:30;;;;;;;;;1.00;1.00;;;;;-147.14;100.00;58812.66;4994617;28;63877;-62
2022/10/26 14:11:58;;;;;;;;;0.00;0.00;;;;;-147.14;100.00;58812.66;4997807;28;45447;-61
2022/10/26 14:14:27;;;;;;;;;1.75;1.75;;;;;-147.14;100.00;58812.66;4988937;28;45445;-62
2022/10/26 14:16:53;;;;;;;;;2.00;0.25;;;;;-147.14;100.00;58812.66;4984431;28;46268;-62
2022/10/26 14:19:27;;;;;;;;;1.25;0.00;;;;;-147.14;100.00;58812.66;4996326;28;46797;-62
2022/10/26 14:21:53;;;;;;;;;0.00;0.00;;;;;-147.14;100.00;58812.66;4998087;28;45492;-62
2022/10/26 14:24:26;;;;;;;;;1.00;1.00;;;;;-147.14;100.00;58812.66;4995378;28;62701;-62
2022/10/26 14:26:52;;;;;;;;;0.75;0.00;;;;;-147.14;100.00;58812.66;4996424;28;46177;-62
2022/10/26 14:29:23;;;;;;;;;2.00;0.00;;;;;-147.14;100.00;58812.66;4997293;28;66070;-62
2022/10/26 14:31:48;;;;;;;;;0.00;0.00;;;;;-147.14;100.00;58812.66;4987133;28;45380;-62
2022/10/26 14:34:14;;;;;;;;;0.75;0.75;;;;;-147.14;100.00;58812.66;4994663;28;45379;-62
2022/10/26 14:36:42;;;;;;;;;0.75;0.00;;;;;-147.14;100.00;58812.66;4994348;28;46832;-62
2022/10/26 14:39:35;;;;;;;;;0.75;0.00;;;;;-147.14;100.00;58812.66;4998444;28;45439;-62
2022/10/26 14:42:05;;;;;;;;;2.50;1.00;;;;;-147.14;100.00;58812.66;4986671;28;45597;-62
2022/10/26 14:44:30;;;;;;;;;1.00;1.00;;;;;-147.14;100.00;58812.66;4993518;28;45528;-62
2022/10/26 14:46:56;;;;;;;;;1.00;1.00;;;;;-147.14;100.00;58812.66;4995477;28;45953;-62
2022/10/26 14:49:23;;;;;;;;;2.25;0.00;;;;;-147.14;100.00;58812.66;4997890;28;45321;-62
2022/10/26 14:51:56;;;;;;;;;1.25;1.25;;;;;-147.14;100.00;58812.66;4998092;28;45464;-62
2022/10/26 14:54:24;;;;;;;;;1.00;1.00;;;;;-147.14;100.00;58812.66;4997678;28;45309;-63
2022/10/26 14:56:49;;;;;;;;;2.00;0.75;;;;;-147.14;100.00;58812.66;4993451;28;46430;-62
2022/10/26 14:59:23;;;;;;;;;0.25;0.25;;;;;-147.14;100.00;58812.66;4994635;28;45427;-62
2022/10/26 15:02:03;;;;;;;;;2.00;0.50;;;;;-147.14;100.00;58812.66;4997572;28;45443;-68
2022/10/26 15:04:36;;;;;;;;;1.25;1.00;;;;;-147.14;100.00;58812.66;4994417;28;45376;-68
2022/10/26 15:07:07;;;;;;;;;2.50;0.00;;;;;-147.14;100.00;58812.66;4990095;28;45638;-63
2022/10/26 15:09:52;;;;;;;;;0.00;0.00;;;;;-147.14;100.00;58812.66;4996060;28;45710;-62
2022/10/26 15:12:34;;;;;;;;;0.25;0.25;;;;;-147.14;100.00;58812.66;4993911;28;45259;-62
2022/10/26 15:15:16;;;;;;;;;2.00;1.00;;;;;-147.14;100.00;58812.66;4995781;28;45594;-62
2022/10/26 15:17:48;;;;;;;;;1.50;0.75;;;;;-147.14;100.00;58812.66;4983059;28;45578;-62
2022/10/26 15:20:19;;;;;;;;;1.00;1.00;;;;;-147.14;100.00;58812.66;4996726;28;45681;-62
2022/10/26 15:22:50;;;;;;;;;0.00;0.00;;;;;-147.14;100.00;58812.66;4991231;28;45556;-62
2022/10/26 15:25:22;;;;;;;;;2.00;0.25;;;;;-147.14;100.00;58812.66;4985779;28;45366;-62
2022/10/26 15:27:48;;;;;;;;;1.00;1.00;;;;;-147.14;100.00;58812.66;4984727;28;46358;-69
2022/10/26 15:30:25;;;;;;;;;0.50;0.50;;;;;-147.14;100.00;58812.66;4985803;28;46218;-64
2022/10/26 15:32:52;;;;;;;;;1.75;1.75;;;;;-147.14;100.00;58812.66;4987846;28;45451;-64
2022/10/26 15:35:30;;;;;;;;;2.00;1.00;;;;;-147.14;100.00;58812.66;4989289;28;45676;-64
2022/10/26 15:37:57;;;;;;;;;1.50;0.75;;;;;-147.14;100.00;58812.66;4997006;28;47280;-72
2022/10/26 15:40:23;;;;;;;;;1.00;1.00;;;;;-147.14;100.00;58812.66;4999358;28;45511;-72
2022/10/26 15:42:51;;;;;;;;;2.25;1.00;;;;;-147.14;100.00;58812.66;4996966;28;45587;-67
2022/10/26 15:45:28;;;;;;;;;2.75;0.00;;;;;-147.14;100.00;58812.66;4987856;28;45987;-67
2022/10/26 15:47:56;;;;;;;;;1.00;1.00;;;;;-147.14;100.00;58812.66;4997477;28;47134;-68
2022/10/26 15:50:23;;;;;;;;;3.00;1.00;;;;;-147.14;100.00;58812.66;4996833;28;45448;-66
2022/10/26 15:52:55;;;;;;;;;1.25;1.25;;;;;-147.14;100.00;58812.66;4999558;28;45609;-65
2022/10/26 15:55:20;;;;;;;;;2.00;1.00;;;;;-147.14;100.00;58812.66;4993678;28;45462;-68
2022/10/26 15:57:45;;;;;;;;;2.75;1.00;;;;;-147.14;100.00;58812.66;4994137;28;68679;-66
2022/10/26 16:00:15;;;;;;;;;2.00;1.00;;;;;-147.14;100.00;58812.66;4994794;28;45451;-66